Time;durP1;ratioP1;P1;durP2;ratioP2;P2;SDS_P1;SDS_P2;PMS_P1;PMS_P2;Temp;Humidity;BMP_temperature;BMP_pressure;BME280_temperature;BME280_humidity;BME280_pressure;Samples;Min_cycle;Max_cycle;Signal;HPM_P1;HPM_P2
2023/04/12 00:01:58;;;;;;;4.97;1.88;;;11.40;99.90;;;;;;5123756;27;20026;-67
2023/04/12 00:04:27;;;;;;;10.20;1.98;;;11.30;99.90;;;;;;5124349;27;20042;-67
2023/04/12 00:06:53;;;;;;;9.38;1.92;;;11.30;99.90;;;;;;5123716;27;20027;-68
2023/04/12 00:09:19;;;;;;;13.65;2.42;;;11.20;99.90;;;;;;5121352;27;20369;-66
2023/04/12 00:11:45;;;;;;;6.75;1.83;;;11.20;99.90;;;;;;5123457;27;20039;-66
2023/04/12 00:14:10;;;;;;;6.93;1.58;;;11.20;99.90;;;;;;5124516;27;20084;-67
2023/04/12 00:16:37;;;;;;;7.22;2.03;;;11.20;99.90;;;;;;5124093;27;20024;-67
2023/04/12 00:19:05;;;;;;;8.70;2.33;;;11.10;99.90;;;;;;5124293;27;20031;-66
2023/04/12 00:21:31;;;;;;;7.88;2.10;;;11.10;99.90;;;;;;5121977;27;20027;-66
2023/04/12 00:23:56;;;;;;;5.70;2.50;;;11.00;99.90;;;;;;5127065;27;20486;-67
2023/04/12 00:26:23;;;;;;;6.40;2.30;;;11.10;99.90;;;;;;5123187;28;20086;-66
2023/04/12 00:28:49;;;;;;;6.30;2.40;;;11.10;99.90;;;;;;5128613;28;20031;-66
2023/04/12 00:31:15;;;;;;;7.13;2.67;;;11.00;99.90;;;;;;5125860;27;20044;-66
2023/04/12 00:33:41;;;;;;;10.00;2.35;;;11.10;99.90;;;;;;5119900;27;20038;-66
2023/04/12 00:36:07;;;;;;;6.65;2.45;;;11.10;99.90;;;;;;5124212;27;20035;-66
2023/04/12 00:38:33;;;;;;;6.93;2.20;;;11.00;99.90;;;;;;5124335;27;20036;-67
2023/04/12 00:40:59;;;;;;;8.20;2.22;;;11.00;99.90;;;;;;5123744;27;20027;-67
2023/04/12 00:43:26;;;;;;;6.15;2.38;;;10.90;99.90;;;;;;5124761;27;20112;-67
2023/04/12 00:45:53;;;;;;;9.95;2.50;;;10.70;99.90;;;;;;5124627;28;20395;-67
2023/04/12 00:48:19;;;;;;;10.95;2.13;;;10.80;99.90;;;;;;5121191;27;20035;-67
2023/04/12 00:50:45;;;;;;;7.65;2.20;;;10.80;99.90;;;;;;5117562;27;20024;-67
2023/04/12 00:53:13;;;;;;;5.00;2.13;;;10.70;99.90;;;;;;5126383;27;20027;-67
2023/04/12 00:55:43;;;;;;;8.52;2.38;;;10.70;99.90;;;;;;5119633;28;20479;-67
2023/04/12 00:58:09;;;;;;;7.85;2.85;;;10.80;99.90;;;;;;5124157;27;20490;-67
2023/04/12 01:00:35;;;;;;;6.78;1.90;;;10.80;99.90;;;;;;5122616;28;20121;-67
2023/04/12 01:03:02;;;;;;;5.13;2.00;;;10.90;99.90;;;;;;5124096;27;20543;-67
2023/04/12 01:05:29;;;;;;;5.38;2.38;;;10.70;99.90;;;;;;5121195;27;20065;-67
2023/04/12 01:08:09;;;;;;;8.98;2.53;;;10.70;99.90;;;;;;5125842;27;20019;-67
2023/04/12 01:10:56;;;;;;;8.65;1.65;;;10.70;99.90;;;;;;5118188;27;20027;-67
2023/04/12 01:13:34;;;;;;;4.53;1.95;;;10.50;99.90;;;;;;5121773;28;20080;-67
2023/04/12 01:16:26;;;;;;;8.32;2.38;;;10.70;99.90;;;;;;5121520;27;20476;-67
2023/04/12 01:18:58;;;;;;;9.98;2.25;;;10.80;99.90;;;;;;5122169;28;20037;-67
2023/04/12 01:21:30;;;;;;;;;;;10.60;99.90;;;;;;5127015;27;20023;-66
2023/04/12 01:24:35;;;;;;;5.00;2.22;;;10.70;99.90;;;;;;5117454;27;19927;-67
2023/04/12 01:27:02;;;;;;;6.18;1.92;;;10.70;99.90;;;;;;5119299;27;20120;-67
2023/04/12 01:29:30;;;;;;;8.88;2.45;;;10.60;99.90;;;;;;5126116;28;20030;-67
2023/04/12 01:32:01;;;;;;;3.08;1.95;;;10.60;99.90;;;;;;5116447;27;20473;-67
2023/04/12 01:34:32;;;;;;;7.60;2.13;;;10.60;99.90;;;;;;5120739;28;20019;-67
2023/04/12 01:37:01;;;;;;;5.75;1.90;;;10.50;99.90;;;;;;5124087;27;20382;-67
2023/04/12 01:39:28;;;;;;;7.72;2.15;;;10.40;99.90;;;;;;5126341;27;20452;-67
2023/04/12 01:41:54;;;;;;;5.30;2.00;;;10.40;99.90;;;;;;5130423;27;20020;-66
2023/04/12 01:44:20;;;;;;;5.38;2.03;;;10.50;99.90;;;;;;5130823;27;20123;-66
2023/04/12 01:46:47;;;;;;;5.95;1.95;;;10.40;99.90;;;;;;5127295;27;20015;-67
2023/04/12 01:49:15;;;;;;;9.15;2.00;;;10.40;99.90;;;;;;5126818;27;20030;-67
2023/04/12 01:51:59;;;;;;;10.32;1.95;;;10.30;99.90;;;;;;5129575;27;20042;-67
2023/04/12 01:54:29;;;;;;;5.57;2.28;;;10.30;99.90;;;;;;5131030;27;20019;-67
2023/04/12 01:57:01;;;;;;;5.07;1.58;;;10.30;99.90;;;;;;5125771;27;20027;-66
2023/04/12 01:59:39;;;;;;;7.00;2.15;;;10.30;99.90;;;;;;5127040;27;20531;-66
2023/04/12 02:02:05;;;;;;;5.80;2.00;;;10.30;99.90;;;;;;5127038;27;20034;-67
2023/04/12 02:04:33;;;;;;;4.63;1.77;;;10.40;99.90;;;;;;5124646;27;20483;-67
2023/04/12 02:06:59;;;;;;;6.00;1.50;;;10.30;99.90;;;;;;5123251;27;20587;-67
2023/04/12 02:09:24;;;;;;;4.47;1.95;;;10.30;99.90;;;;;;5126994;27;20492;-67
2023/04/12 02:11:50;;;;;;;6.78;2.13;;;10.40;99.90;;;;;;5128139;27;20546;-67
2023/04/12 02:14:16;;;;;;;4.97;1.48;;;10.30;99.90;;;;;;5124007;27;20098;-67
2023/04/12 02:16:43;;;;;;;6.63;1.60;;;10.20;99.90;;;;;;5126501;27;20045;-70
2023/04/12 02:19:09;;;;;;;3.03;1.38;;;10.30;99.90;;;;;;5125309;27;20081;-67
2023/04/12 02:21:43;;;;;;;2.88;1.60;;;10.20;99.90;;;;;;5128118;27;20035;-67
2023/04/12 02:24:10;;;;;;;5.97;1.42;;;10.30;99.90;;;;;;5125716;27;20099;-66
2023/04/12 02:26:37;;;;;;;5.80;1.40;;;10.20;99.90;;;;;;5129992;27;20022;-67
2023/04/12 02:29:06;;;;;;;3.35;1.20;;;10.30;99.90;;;;;;5129604;27;20023;-67
2023/04/12 02:31:34;;;;;;;3.50;1.10;;;10.30;99.90;;;;;;5128274;27;20064;-66
2023/04/12 02:34:00;;;;;;;2.35;1.17;;;10.30;99.90;;;;;;5124079;27;20121;-67
2023/04/12 02:36:25;;;;;;;4.88;1.60;;;10.40;99.90;;;;;;5128206;27;20011;-67
2023/04/12 02:38:51;;;;;;;3.65;1.25;;;10.30;99.90;;;;;;5123603;27;20491;-67
2023/04/12 02:41:18;;;;;;;3.35;1.17;;;10.30;99.90;;;;;;5119452;27;20019;-67
2023/04/12 02:43:43;;;;;;;7.55;1.70;;;10.30;99.90;;;;;;5120032;27;20047;-67
2023/04/12 02:46:09;;;;;;;5.03;1.48;;;10.30;99.90;;;;;;5127089;27;20153;-67
2023/04/12 02:48:35;;;;;;;1.92;1.00;;;10.40;99.90;;;;;;5126353;27;20034;-67
2023/04/12 02:51:01;;;;;;;4.78;1.40;;;10.30;99.90;;;;;;5121774;27;20028;-67
2023/04/12 02:53:26;;;;;;;4.05;1.40;;;10.20;99.90;;;;;;5124186;27;20046;-66
2023/04/12 02:55:52;;;;;;;3.10;1.30;;;10.30;99.90;;;;;;5122493;27;20618;-66
2023/04/12 02:58:17;;;;;;;2.58;1.00;;;10.30;99.90;;;;;;5126609;27;20027;-67
2023/04/12 03:00:45;;;;;;;3.05;1.20;;;10.30;99.90;;;;;;5126762;27;20019;-66
2023/04/12 03:03:10;;;;;;;3.45;1.40;;;10.20;99.90;;;;;;5123542;27;20039;-67
2023/04/12 03:05:36;;;;;;;5.18;1.13;;;10.30;99.90;;;;;;5125097;27;20050;-67
2023/04/12 03:08:02;;;;;;;4.43;0.98;;;10.20;99.90;;;;;;5126253;27;20103;-67
2023/04/12 03:10:28;;;;;;;3.40;0.93;;;10.30;99.90;;;;;;5123766;27;20110;-67
2023/04/12 03:12:53;;;;;;;2.55;1.08;;;10.30;99.90;;;;;;5126382;27;20110;-66
2023/04/12 03:15:22;;;;;;;4.57;1.40;;;10.30;99.90;;;;;;5125393;27;20072;-66
2023/04/12 03:17:47;;;;;;;4.65;1.25;;;10.20;99.90;;;;;;5127060;27;20031;-67
2023/04/12 03:20:13;;;;;;;3.33;1.15;;;10.20;99.90;;;;;;5122003;27;20023;-67
2023/04/12 03:22:39;;;;;;;2.22;1.10;;;10.20;99.90;;;;;;5122998;27;20086;-67
2023/04/12 03:25:05;;;;;;;3.47;1.10;;;10.20;99.90;;;;;;5125070;27;20554;-67
2023/04/12 03:27:31;;;;;;;1.83;0.73;;;10.20;99.90;;;;;;5128352;27;20019;-67
2023/04/12 03:29:57;;;;;;;2.38;0.70;;;10.30;99.90;;;;;;5125233;27;20027;-67
2023/04/12 03:32:23;;;;;;;3.53;1.02;;;10.20;99.90;;;;;;5119635;27;20026;-67
2023/04/12 03:34:48;;;;;;;3.40;1.00;;;10.20;99.90;;;;;;5123347;27;21002;-67
2023/04/12 03:37:14;;;;;;;5.80;1.05;;;10.30;99.90;;;;;;5126311;27;20070;-67
2023/04/12 03:39:40;;;;;;;3.10;1.42;;;10.30;99.90;;;;;;5122424;27;20020;-67
2023/04/12 03:42:05;;;;;;;3.40;0.95;;;10.20;99.90;;;;;;5124438;27;20088;-67
2023/04/12 03:44:32;;;;;;;3.50;1.23;;;10.10;99.90;;;;;;5121610;27;20035;-67
2023/04/12 03:46:58;;;;;;;3.25;1.08;;;10.30;99.90;;;;;;5123546;27;20027;-67
2023/04/12 03:49:24;;;;;;;4.28;1.05;;;10.20;99.90;;;;;;5120958;27;20265;-67
2023/04/12 03:51:51;;;;;;;2.63;1.17;;;10.20;99.90;;;;;;5123563;27;20055;-67
2023/04/12 03:54:17;;;;;;;2.38;0.90;;;10.20;99.90;;;;;;5121837;27;20020;-67
2023/04/12 03:56:42;;;;;;;3.70;1.20;;;10.20;99.90;;;;;;5126171;27;20034;-67
2023/04/12 03:59:08;;;;;;;5.80;1.38;;;10.10;99.90;;;;;;5122819;27;20076;-67
2023/04/12 04:01:34;;;;;;;2.55;1.00;;;10.30;99.90;;;;;;5125853;27;20031;-67
2023/04/12 04:04:00;;;;;;;2.40;1.05;;;10.30;99.90;;;;;;5124891;27;20387;-67
2023/04/12 04:06:26;;;;;;;4.07;1.50;;;10.30;99.90;;;;;;5118164;27;20012;-67
2023/04/12 04:08:52;;;;;;;1.73;1.42;;;10.20;99.90;;;;;;5118605;27;20024;-67
2023/04/12 04:11:18;;;;;;;3.47;1.15;;;10.30;99.90;;;;;;5122313;27;20600;-67
2023/04/12 04:13:45;;;;;;;5.20;1.30;;;10.30;99.90;;;;;;5119611;27;20479;-67
2023/04/12 04:16:11;;;;;;;4.85;1.40;;;10.30;99.90;;;;;;5119876;27;20020;-67
2023/04/12 04:18:37;;;;;;;2.35;1.00;;;10.30;99.90;;;;;;5122605;27;20106;-67
2023/04/12 04:21:02;;;;;;;3.15;1.58;;;10.30;99.90;;;;;;5124634;27;20022;-67
2023/04/12 04:23:38;;;;;;;2.70;1.30;;;10.30;99.90;;;;;;5123645;27;20501;-67
2023/04/12 04:26:09;;;;;;;2.20;1.17;;;10.20;99.90;;;;;;5124386;27;20106;-67
2023/04/12 04:28:37;;;;;;;3.58;1.50;;;10.20;99.90;;;;;;5119562;28;20426;-66
2023/04/12 04:31:05;;;;;;;3.45;1.60;;;10.30;99.90;;;;;;5127198;27;20039;-67
2023/04/12 04:33:32;;;;;;;5.90;1.83;;;10.30;99.90;;;;;;5120509;27;20023;-67
2023/04/12 04:35:57;;;;;;;4.78;1.40;;;10.30;99.90;;;;;;5125131;28;20107;-67
2023/04/12 04:38:25;;;;;;;5.80;1.55;;;10.40;99.90;;;;;;5123606;27;20105;-66
2023/04/12 04:40:54;;;;;;;3.17;1.55;;;10.40;99.90;;;;;;5127234;27;20023;-67
2023/04/12 04:43:20;;;;;;;2.60;1.50;;;10.30;99.90;;;;;;5124051;27;20055;-66
2023/04/12 04:45:49;;;;;;;4.03;1.80;;;10.40;99.90;;;;;;5125040;28;20024;-67
2023/04/12 04:48:17;;;;;;;2.95;1.95;;;10.50;99.90;;;;;;5125293;28;20039;-66
2023/04/12 04:50:43;;;;;;;3.13;1.70;;;10.40;99.90;;;;;;5120797;27;20428;-67
2023/04/12 04:53:09;;;;;;;5.55;2.00;;;10.40;99.90;;;;;;5115600;28;20028;-67
2023/04/12 04:55:35;;;;;;;1.70;1.60;;;10.40;99.90;;;;;;5123287;28;20031;-71
2023/04/12 04:58:00;;;;;;;4.38;1.75;;;10.40;99.90;;;;;;5115719;27;20019;-67
2023/04/12 05:00:26;;;;;;;4.15;1.67;;;10.50;99.90;;;;;;5123085;27;20031;-67
2023/04/12 05:02:52;;;;;;;2.63;1.67;;;10.50;99.90;;;;;;5125245;27;20458;-67
2023/04/12 05:05:22;;;;;;;4.18;1.50;;;10.50;99.90;;;;;;5120679;27;20067;-67
2023/04/12 05:07:48;;;;;;;5.40;1.73;;;10.50;99.90;;;;;;5126519;28;20371;-66
2023/04/12 05:10:13;;;;;;;5.00;2.00;;;10.50;99.90;;;;;;5122189;27;20036;-66
2023/04/12 05:12:39;;;;;;;5.30;1.50;;;10.60;99.90;;;;;;5121624;27;20030;-70
2023/04/12 05:15:06;;;;;;;4.75;2.10;;;10.50;99.90;;;;;;5123648;27;20039;-67
2023/04/12 05:17:33;;;;;;;5.10;1.80;;;10.40;99.90;;;;;;5129313;27;20092;-67
2023/04/12 05:19:59;;;;;;;5.45;2.20;;;10.40;99.90;;;;;;5124530;27;20061;-67
2023/04/12 05:22:25;;;;;;;4.60;2.00;;;10.60;99.90;;;;;;5125508;27;20102;-68
2023/04/12 05:24:51;;;;;;;4.78;1.50;;;10.60;99.90;;;;;;5120143;27;20037;-67
2023/04/12 05:27:17;;;;;;;4.43;1.80;;;10.50;99.90;;;;;;5126113;27;20027;-67
2023/04/12 05:29:43;;;;;;;3.28;1.65;;;10.70;99.90;;;;;;5133503;27;20415;-67
2023/04/12 05:32:09;;;;;;;3.33;1.52;;;10.50;99.90;;;;;;5125380;27;20098;-67
2023/04/12 05:34:36;;;;;;;4.07;1.60;;;10.50;99.90;;;;;;5126329;27;20483;-68
2023/04/12 05:37:02;;;;;;;5.15;1.40;;;10.60;99.90;;;;;;5125935;27;20055;-67
2023/04/12 05:39:28;;;;;;;4.22;1.95;;;10.50;99.90;;;;;;5129151;27;20024;-67
2023/04/12 05:41:54;;;;;;;4.53;1.95;;;10.50;99.90;;;;;;5126509;27;20106;-67
2023/04/12 05:44:20;;;;;;;4.22;1.70;;;10.60;99.90;;;;;;5128054;27;20088;-67
2023/04/12 05:46:46;;;;;;;3.90;1.48;;;10.60;99.90;;;;;;5128708;27;20019;-67
2023/04/12 05:49:12;;;;;;;2.72;1.38;;;10.60;99.90;;;;;;5117489;27;20020;-67
2023/04/12 05:51:37;;;;;;;3.88;1.30;;;10.70;99.90;;;;;;5126630;27;20102;-67
2023/04/12 05:54:06;;;;;;;1.92;1.15;;;10.60;99.90;;;;;;5128926;27;20041;-67
2023/04/12 05:56:34;;;;;;;1.50;1.20;;;10.60;99.90;;;;;;5123908;27;20033;-68
2023/04/12 05:59:01;;;;;;;7.47;1.30;;;10.70;99.90;;;;;;5128485;27;20432;-67
2023/04/12 06:01:33;;;;;;;3.47;1.48;;;10.70;99.90;;;;;;5133099;27;20023;-67
2023/04/12 06:04:01;;;;;;;;;;;10.70;99.90;;;;;;5124987;27;20032;-67
2023/04/12 06:06:29;;;;;;;2.53;1.33;;;10.80;99.90;;;;;;5128575;27;20002;-67
2023/04/12 06:08:56;;;;;;;4.38;1.17;;;10.90;99.90;;;;;;5131718;27;20035;-67
2023/04/12 06:11:23;;;;;;;2.80;1.17;;;10.90;99.90;;;;;;5123608;27;20020;-68
2023/04/12 06:13:48;;;;;;;2.42;1.30;;;11.00;99.90;;;;;;5123125;27;20432;-67
2023/04/12 06:16:14;;;;;;;2.13;1.25;;;11.00;99.90;;;;;;5132987;27;20054;-67
2023/04/12 06:18:40;;;;;;;2.88;1.55;;;11.10;99.90;;;;;;5131645;27;20023;-67
2023/04/12 06:21:06;;;;;;;3.80;1.40;;;11.10;99.90;;;;;;5127712;27;20034;-67
2023/04/12 06:23:31;;;;;;;5.43;1.60;;;11.20;99.90;;;;;;5121549;27;20027;-67
2023/04/12 06:25:57;;;;;;;2.28;1.58;;;11.20;99.90;;;;;;5125072;27;20087;-67
2023/04/12 06:28:22;;;;;;;2.08;1.27;;;11.10;99.90;;;;;;5122683;27;20076;-67
2023/04/12 06:30:48;;;;;;;2.90;1.40;;;11.20;99.90;;;;;;5123793;27;20028;-67
2023/04/12 06:33:14;;;;;;;2.78;1.30;;;11.20;99.90;;;;;;5125030;27;20015;-67
2023/04/12 06:35:40;;;;;;;2.08;1.65;;;11.30;99.90;;;;;;5103114;27;21414;-67
2023/04/12 06:38:06;;;;;;;2.33;1.60;;;11.40;99.90;;;;;;5110342;27;20019;-68
2023/04/12 06:40:32;;;;;;;7.32;2.70;;;11.50;99.90;;;;;;5116842;27;20482;-67
2023/04/12 06:42:57;;;;;;;4.20;2.33;;;11.40;99.90;;;;;;5115124;27;20027;-67
2023/04/12 06:45:23;;;;;;;4.22;1.77;;;11.20;99.90;;;;;;5120747;27;20038;-68
2023/04/12 06:47:49;;;;;;;3.67;1.60;;;11.10;99.90;;;;;;5117022;27;20026;-66
2023/04/12 06:50:14;;;;;;;2.92;1.80;;;11.10;99.90;;;;;;5119867;27;20031;-69
2023/04/12 06:52:40;;;;;;;2.92;1.80;;;11.20;99.90;;;;;;5117503;27;20396;-67
2023/04/12 06:55:06;;;;;;;1.90;1.77;;;11.20;99.90;;;;;;5117667;27;20444;-67
2023/04/12 06:57:32;;;;;;;3.55;1.98;;;11.30;99.90;;;;;;5119970;27;20019;-67
2023/04/12 06:59:57;;;;;;;2.65;2.10;;;11.30;99.90;;;;;;5120490;27;20035;-67
2023/04/12 07:02:23;;;;;;;6.18;5.60;;;11.30;99.90;;;;;;5117709;27;20719;-67
2023/04/12 07:04:55;;;;;;;3.75;1.55;;;11.30;99.90;;;;;;5117268;27;20046;-68
2023/04/12 07:07:21;;;;;;;4.40;1.80;;;11.50;99.90;;;;;;5115088;27;20066;-68
2023/04/12 07:09:46;;;;;;;2.63;1.60;;;11.40;99.90;;;;;;5116306;27;20471;-68
2023/04/12 07:12:12;;;;;;;3.78;2.20;;;11.40;99.90;;;;;;5113523;27;20075;-67
2023/04/12 07:14:38;;;;;;;1.67;1.42;;;11.30;99.90;;;;;;5120628;27;20042;-68
2023/04/12 07:17:04;;;;;;;4.85;1.73;;;11.30;99.90;;;;;;5114476;27;21094;-73
2023/04/12 07:19:30;;;;;;;2.00;1.50;;;11.20;99.90;;;;;;5118127;27;20463;-69
2023/04/12 07:21:56;;;;;;;3.50;2.95;;;11.30;99.90;;;;;;5112820;27;20475;-68
2023/04/12 07:24:22;;;;;;;3.92;2.55;;;11.30;99.90;;;;;;5119752;27;20035;-67
2023/04/12 07:26:48;;;;;;;2.67;1.77;;;11.20;99.90;;;;;;5114924;27;20084;-68
2023/04/12 07:29:15;;;;;;;2.53;2.22;;;11.30;99.90;;;;;;5117880;27;20748;-68
2023/04/12 07:31:41;;;;;;;8.25;3.80;;;11.20;99.90;;;;;;5116597;27;20024;-68
2023/04/12 07:34:07;;;;;;;6.15;3.83;;;11.20;99.90;;;;;;5115152;27;20107;-69
2023/04/12 07:36:32;;;;;;;7.82;4.25;;;11.30;99.90;;;;;;5116400;27;20023;-68
2023/04/12 07:38:58;;;;;;;6.85;4.60;;;11.20;99.90;;;;;;5115845;27;20472;-68
2023/04/12 07:41:24;;;;;;;8.45;5.50;;;11.30;99.90;;;;;;5112640;27;20027;-69
2023/04/12 07:43:49;;;;;;;11.30;5.78;;;11.30;99.90;;;;;;5117230;27;20068;-69
2023/04/12 07:46:15;;;;;;;9.95;5.40;;;11.40;99.90;;;;;;5116002;27;20035;-69
2023/04/12 07:48:42;;;;;;;12.63;5.00;;;11.50;99.90;;;;;;5116534;27;20033;-68
2023/04/12 07:51:08;;;;;;;9.38;4.80;;;11.60;99.90;;;;;;5117510;27;20138;-67
2023/04/12 07:53:34;;;;;;;11.02;6.10;;;11.60;99.90;;;;;;5112368;27;20102;-67
2023/04/12 07:55:59;;;;;;;11.13;6.95;;;11.70;99.90;;;;;;5115980;27;20131;-68
2023/04/12 07:58:25;;;;;;;12.43;6.40;;;11.70;99.90;;;;;;5114380;27;20539;-67
2023/04/12 08:00:52;;;;;;;10.50;6.50;;;11.80;99.90;;;;;;5116123;27;20024;-68
2023/04/12 08:03:18;;;;;;;14.30;6.45;;;11.70;99.90;;;;;;5116691;27;20046;-68
2023/04/12 08:05:45;;;;;;;12.77;7.25;;;11.80;99.90;;;;;;5115882;27;20897;-71
2023/04/12 08:08:11;;;;;;;14.88;7.10;;;11.80;99.90;;;;;;5118230;27;20376;-68
2023/04/12 08:10:38;;;;;;;10.75;6.78;;;11.80;99.90;;;;;;5115565;27;20020;-69
2023/04/12 08:13:05;;;;;;;10.98;7.32;;;11.80;99.90;;;;;;5118497;27;20720;-68
2023/04/12 08:15:32;;;;;;;18.30;7.50;;;11.80;99.90;;;;;;5118187;27;20492;-69
2023/04/12 08:17:57;;;;;;;16.38;8.15;;;11.90;99.90;;;;;;5110688;27;20043;-69
2023/04/12 08:20:23;;;;;;;16.30;8.50;;;11.90;99.90;;;;;;5113362;27;20534;-67
2023/04/12 08:22:50;;;;;;;19.48;8.70;;;11.90;99.90;;;;;;5116474;27;20212;-68
2023/04/12 08:25:16;;;;;;;14.55;8.20;;;11.90;99.90;;;;;;5114175;27;20454;-71
2023/04/12 08:27:42;;;;;;;14.82;8.80;;;11.90;99.90;;;;;;5115444;27;20145;-71
2023/04/12 08:30:10;;;;;;;16.40;8.65;;;11.90;99.90;;;;;;5115344;27;20030;-69
2023/04/12 08:32:36;;;;;;;18.27;9.20;;;12.00;99.90;;;;;;5118233;28;20026;-68
2023/04/12 08:35:03;;;;;;;13.30;8.85;;;12.00;99.90;;;;;;5115237;27;20036;-69
2023/04/12 08:37:29;;;;;;;19.17;8.50;;;12.00;99.90;;;;;;5114911;27;20034;-72
2023/04/12 08:39:55;;;;;;;23.73;9.40;;;12.10;99.90;;;;;;5118325;27;20494;-67
2023/04/12 08:42:21;;;;;;;15.23;7.95;;;12.10;99.90;;;;;;5114908;27;20038;-68
2023/04/12 08:44:47;;;;;;;14.70;7.93;;;12.20;99.90;;;;;;5115266;27;20110;-67
2023/04/12 08:47:12;;;;;;;20.15;7.50;;;12.10;99.90;;;;;;5116428;27;20094;-67
2023/04/12 08:49:38;;;;;;;14.48;7.25;;;12.20;99.90;;;;;;5113338;27;20019;-67
2023/04/12 08:52:07;;;;;;;16.45;8.20;;;12.30;99.90;;;;;;5122409;27;20022;-67
2023/04/12 08:54:33;;;;;;;15.85;7.53;;;12.50;99.90;;;;;;5118714;27;20088;-67
2023/04/12 08:57:02;;;;;;;13.30;7.07;;;12.70;99.90;;;;;;5122786;27;20031;-67
2023/04/12 08:59:29;;;;;;;17.65;9.05;;;12.90;99.90;;;;;;5119374;27;20015;-67
2023/04/12 09:01:55;;;;;;;19.52;8.13;;;12.90;99.90;;;;;;5116458;27;20015;-67
2023/04/12 09:04:21;;;;;;;13.93;7.40;;;12.90;99.90;;;;;;5118159;27;20491;-67
2023/04/12 09:06:47;;;;;;;17.13;8.35;;;13.10;99.90;;;;;;5116521;27;20027;-68
2023/04/12 09:09:13;;;;;;;18.63;7.78;;;13.10;99.90;;;;;;5118420;27;20485;-71
2023/04/12 09:11:38;;;;;;;17.90;7.85;;;13.30;99.90;;;;;;5119983;27;20031;-69
2023/04/12 09:14:22;;;;;;;16.08;6.90;;;13.50;99.90;;;;;;5120725;27;20966;-69
2023/04/12 09:16:48;;;;;;;20.90;7.90;;;13.60;99.90;;;;;;5116926;27;20499;-69
2023/04/12 09:19:14;;;;;;;20.38;7.72;;;13.40;99.90;;;;;;5118693;27;20031;-68
2023/04/12 09:21:54;;;;;;;19.20;8.20;;;13.20;99.90;;;;;;5118091;27;20490;-69
2023/04/12 09:24:23;;;;;;;18.75;8.18;;;13.30;99.90;;;;;;5118272;27;20036;-72
2023/04/12 09:27:00;;;;;;;25.88;8.32;;;13.20;99.90;;;;;;5118765;27;20019;-71
2023/04/12 09:29:26;;;;;;;29.35;9.60;;;13.30;99.90;;;;;;5117408;27;20056;-68
2023/04/12 09:32:05;;;;;;;25.23;8.60;;;13.50;99.90;;;;;;5117909;27;20051;-68
2023/04/12 09:34:34;;;;;;;23.88;8.90;;;13.60;99.90;;;;;;5117624;27;20391;-69
2023/04/12 09:37:12;;;;;;;24.90;8.93;;;13.70;99.90;;;;;;5119105;27;20024;-69
2023/04/12 09:39:38;;;;;;;27.63;9.50;;;13.70;99.90;;;;;;5117051;27;20059;-68
2023/04/12 09:42:05;;;;;;;21.13;8.68;;;14.00;99.90;;;;;;5120919;27;20431;-68
2023/04/12 09:44:31;;;;;;;26.25;9.10;;;14.10;99.90;;;;;;5120086;27;20035;-68
2023/04/12 09:46:59;;;;;;;28.95;7.65;;;14.20;99.90;;;;;;5116193;27;20429;-69
2023/04/12 09:49:36;;;;;;;20.83;7.25;;;14.30;99.90;;;;;;5118907;27;20094;-68
2023/04/12 09:52:02;;;;;;;23.88;7.70;;;14.30;99.90;;;;;;5118511;27;20015;-69
2023/04/12 09:54:29;;;;;;;20.98;7.88;;;14.20;99.90;;;;;;5117174;27;20083;-68
2023/04/12 09:56:56;;;;;;;27.25;8.77;;;14.30;99.90;;;;;;5122063;27;20028;-68
2023/04/12 09:59:25;;;;;;;29.40;8.65;;;14.30;99.90;;;;;;5117922;27;20402;-68
2023/04/12 10:01:52;;;;;;;21.88;9.40;;;14.40;99.90;;;;;;5114834;27;20027;-68
2023/04/12 10:04:19;;;;;;;21.17;8.77;;;14.40;99.90;;;;;;5118241;27;20031;-68
2023/04/12 10:06:45;;;;;;;22.77;7.95;;;14.40;99.90;;;;;;5120286;27;20544;-69
2023/04/12 10:09:13;;;;;;;18.77;6.90;;;14.40;99.90;;;;;;5118851;27;20028;-69
2023/04/12 10:11:41;;;;;;;18.55;6.70;;;14.40;99.90;;;;;;5116169;27;20118;-69
2023/04/12 10:14:08;;;;;;;21.95;7.93;;;14.40;99.90;;;;;;5116490;27;20055;-69
2023/04/12 10:16:34;;;;;;;20.88;7.90;;;14.20;99.90;;;;;;5118782;27;20019;-67
2023/04/12 10:19:02;;;;;;;23.95;7.93;;;14.30;99.90;;;;;;5119741;27;20027;-73
2023/04/12 10:21:28;;;;;;;16.17;7.28;;;14.20;99.90;;;;;;5120202;27;20019;-68
2023/04/12 10:23:54;;;;;;;22.23;7.20;;;14.20;99.90;;;;;;5117676;27;20035;-67
2023/04/12 10:26:20;;;;;;;19.27;6.43;;;14.40;99.90;;;;;;5116538;27;20019;-67
2023/04/12 10:29:39;;;;;;;17.85;5.75;;;14.50;99.90;;;;;;5120061;27;20051;-68
2023/04/12 10:32:22;;;;;;;20.25;5.28;;;14.50;99.90;;;;;;5109970;27;20391;-67
2023/04/12 10:35:00;;;;;;;16.15;5.22;;;14.60;99.90;;;;;;5117736;27;20049;-70
2023/04/12 10:37:59;;;;;;;14.13;5.40;;;14.50;99.90;;;;;;5118179;27;20027;-69
2023/04/12 10:40:24;;;;;;;20.30;5.45;;;14.50;99.90;;;;;;5118508;27;20024;-67
2023/04/12 10:43:22;;;;;;;11.70;4.85;;;14.50;99.90;;;;;;5120667;27;20036;-69
2023/04/12 10:45:48;;;;;;;20.45;5.05;;;14.50;99.90;;;;;;5122325;27;20387;-69
2023/04/12 10:48:35;;;;;;;16.77;4.53;;;14.70;99.90;;;;;;5117001;27;20506;-69
2023/04/12 10:51:32;;;;;;;19.70;5.35;;;14.80;99.90;;;;;;5116960;27;20019;-69
2023/04/12 10:54:07;;;;;;;14.23;4.10;;;15.10;99.90;;;;;;5107377;27;20648;-68
2023/04/12 10:56:43;;;;;;;17.40;3.85;;;15.20;99.90;;;;;;5115430;27;20157;-68
2023/04/12 10:59:10;;;;;;;15.50;3.90;;;15.20;99.90;;;;;;5117305;27;20028;-68
2023/04/12 11:01:38;;;;;;;12.65;2.97;;;15.40;99.90;;;;;;5116020;27;20099;-68
2023/04/12 11:04:14;;;;;;;12.93;3.65;;;15.60;99.90;;;;;;5120772;27;20427;-68
2023/04/12 11:06:52;;;;;;;16.40;3.25;;;15.70;99.90;;;;;;5116252;27;20027;-68
2023/04/12 11:09:19;;;;;;;14.55;3.75;;;15.90;99.90;;;;;;5118493;27;20031;-70
2023/04/12 11:11:45;;;;;;;15.85;3.53;;;16.10;99.90;;;;;;5114357;27;20048;-69
2023/04/12 11:14:13;;;;;;;22.02;4.05;;;16.20;99.90;;;;;;5116343;27;20034;-69
2023/04/12 11:17:01;;;;;;;15.23;3.45;;;16.00;99.90;;;;;;5113672;27;20395;-69
2023/04/12 11:19:27;;;;;;;13.10;2.97;;;15.90;99.90;;;;;;5115581;27;20027;-68
2023/04/12 11:21:52;;;;;;;12.13;3.30;;;15.80;99.90;;;;;;5116040;27;20027;-68
2023/04/12 11:24:18;;;;;;;14.18;3.30;;;15.50;99.90;;;;;;5115483;27;20537;-68
2023/04/12 11:26:45;;;;;;;14.00;3.17;;;15.30;99.90;;;;;;5117418;27;20109;-69
2023/04/12 11:29:21;;;;;;;16.20;4.10;;;15.00;99.90;;;;;;5115471;27;20036;-69
2023/04/12 11:31:47;;;;;;;16.65;3.42;;;15.00;99.90;;;;;;5118086;27;20429;-71
2023/04/12 11:34:14;;;;;;;19.33;3.45;;;14.90;99.90;;;;;;5121738;27;20022;-69
2023/04/12 11:36:40;;;;;;;16.30;3.35;;;14.90;99.90;;;;;;5113037;27;21652;-69
2023/04/12 11:39:06;;;;;;;17.75;3.40;;;15.00;99.90;;;;;;5115570;27;20110;-69
2023/04/12 11:41:33;;;;;;;13.48;2.97;;;15.00;99.90;;;;;;5117792;27;20464;-69
2023/04/12 11:43:59;;;;;;;16.58;2.63;;;15.00;99.90;;;;;;5118067;27;20503;-69
2023/04/12 11:46:26;;;;;;;15.55;2.92;;;15.10;99.90;;;;;;5117595;27;20034;-70
2023/04/12 11:48:52;;;;;;;17.20;4.43;;;15.30;99.90;;;;;;5117266;27;20023;-69
2023/04/12 11:51:27;;;;;;;16.38;4.97;;;15.30;99.90;;;;;;5113563;27;20024;-69
2023/04/12 11:53:53;;;;;;;18.00;5.50;;;15.20;99.90;;;;;;5120566;27;20032;-68
2023/04/12 11:56:19;;;;;;;15.95;4.40;;;15.00;99.90;;;;;;5114358;27;20019;-67
2023/04/12 11:58:48;;;;;;;14.40;4.50;;;15.00;99.90;;;;;;5117239;27;20104;-68
2023/04/12 12:01:15;;;;;;;14.50;4.60;;;14.90;99.90;;;;;;5118896;27;20020;-68
2023/04/12 12:03:41;;;;;;;14.15;4.60;;;14.90;99.90;;;;;;5118770;27;20361;-68
2023/04/12 12:06:08;;;;;;;16.60;4.65;;;14.80;99.90;;;;;;5115255;27;20034;-67
2023/04/12 12:08:35;;;;;;;9.88;2.97;;;14.60;99.90;;;;;;5120070;27;20027;-67
2023/04/12 12:11:00;;;;;;;7.65;1.40;;;14.10;99.90;;;;;;5118394;27;20047;-69
2023/04/12 12:13:26;;;;;;;4.40;1.77;;;13.90;99.90;;;;;;5114918;27;20479;-68
2023/04/12 12:15:53;;;;;;;5.13;1.48;;;13.80;99.90;;;;;;5118313;27;20019;-68
2023/04/12 12:18:27;;;;;;;6.68;1.77;;;13.70;99.90;;;;;;5113235;27;20031;-68
2023/04/12 12:20:56;;;;;;;3.88;1.33;;;13.90;99.90;;;;;;5114886;27;20020;-68
2023/04/12 12:23:33;;;;;;;6.78;1.60;;;14.00;99.90;;;;;;5116776;27;20043;-68
2023/04/12 12:26:02;;;;;;;6.43;1.52;;;14.00;99.90;;;;;;5116082;27;20031;-69
2023/04/12 12:28:29;;;;;;;6.00;1.77;;;14.10;99.90;;;;;;5117210;27;20066;-69
2023/04/12 12:30:56;;;;;;;6.18;1.80;;;14.10;99.90;;;;;;5117534;27;20038;-68
2023/04/12 12:33:23;;;;;;;10.27;1.90;;;14.10;99.90;;;;;;5118537;27;20103;-69
2023/04/12 12:35:56;;;;;;;12.10;2.20;;;14.20;99.90;;;;;;5115665;28;20023;-71
2023/04/12 12:38:22;;;;;;;8.32;2.30;;;14.10;99.90;;;;;;5113153;27;20031;-70
2023/04/12 12:40:49;;;;;;;9.52;2.30;;;14.10;99.90;;;;;;5116524;28;20047;-70
2023/04/12 12:43:24;;;;;;;10.18;2.67;;;14.10;99.90;;;;;;5117017;27;20119;-69
2023/04/12 12:45:50;;;;;;;9.07;3.45;;;14.10;99.90;;;;;;5115746;28;20512;-70
2023/04/12 12:48:18;;;;;;;5.80;3.85;;;14.20;99.90;;;;;;5112714;27;20023;-69